createdAt,value
2023-03-02T07:49:52.171Z,5.70
2023-03-02T08:07:49.082Z,6.25
2023-03-02T08:10:51.562Z,6.47
2023-03-02T08:13:54.145Z,6.18
2023-03-02T08:16:56.607Z,8.95
2023-03-02T08:19:59.123Z,7.22
2023-03-02T08:23:02.922Z,7.05
2023-03-02T08:26:05.749Z,7.65
2023-03-02T08:29:08.562Z,8.52
2023-03-02T08:32:11.190Z,6.95
2023-03-02T08:35:13.803Z,7.13
2023-03-02T08:38:17.601Z,10.55
2023-03-02T08:41:21.934Z,7.50
2023-03-02T08:44:24.512Z,7.65
2023-03-02T08:47:27.023Z,7.22
2023-03-02T08:50:29.518Z,9.55
2023-03-02T08:53:35.073Z,8.20
2023-03-02T08:56:39.543Z,7.38
2023-03-02T08:59:42.239Z,6.90
2023-03-02T09:02:44.705Z,7.60
2023-03-02T09:05:47.299Z,7.25
2023-03-02T09:08:51.822Z,8.27
2023-03-02T09:11:54.276Z,9.15
2023-03-02T09:14:56.742Z,9.60
2023-03-02T09:17:59.196Z,6.95
2023-03-02T09:21:01.908Z,6.00
2023-03-02T09:24:06.236Z,5.90
2023-03-02T09:27:08.709Z,6.70
2023-03-02T09:30:12.885Z,6.95
2023-03-02T09:33:15.515Z,6.43
2023-03-02T09:36:22.490Z,6.28
2023-03-02T09:39:26.371Z,6.13
2023-03-02T09:42:50.390Z,6.75
2023-03-02T09:46:03.927Z,6.20
2023-03-02T09:49:17.913Z,5.97
2023-03-02T09:52:31.573Z,6.95
2023-03-02T09:55:37.830Z,6.88
2023-03-02T09:58:42.488Z,7.07
2023-03-02T10:01:48.921Z,7.40
2023-03-02T10:04:54.419Z,6.60
2023-03-02T10:07:59.289Z,6.57
2023-03-02T10:11:12.911Z,6.95
2023-03-02T10:14:21.474Z,7.78
2023-03-02T10:17:44.367Z,7.40
2023-03-02T10:20:53.606Z,6.57
2023-03-02T10:24:00.658Z,6.35
2023-03-02T10:27:17.034Z,7.57
2023-03-02T10:30:27.774Z,4.88
2023-03-02T10:33:33.626Z,5.97
2023-03-02T10:36:39.911Z,5.40
2023-03-02T10:39:42.501Z,6.07
2023-03-02T10:42:46.472Z,4.70
2023-03-02T10:46:00.291Z,5.00
2023-03-02T10:49:02.945Z,5.50
2023-03-02T10:52:07.530Z,6.65
2023-03-02T10:55:14.925Z,6.07
2023-03-02T10:58:25.894Z,6.25
2023-03-02T11:01:28.503Z,5.80
2023-03-02T11:04:31.476Z,5.55
2023-03-02T11:07:33.985Z,5.75
2023-03-02T11:10:38.956Z,6.68
2023-03-02T11:13:42.801Z,5.75
2023-03-02T11:16:45.478Z,6.03
2023-03-02T11:19:48.173Z,5.88
2023-03-02T11:23:00.116Z,5.03
2023-03-02T11:26:07.978Z,4.75
2023-03-02T11:29:22.576Z,5.82
2023-03-02T11:32:32.166Z,5.88
2023-03-02T11:35:39.914Z,6.35
2023-03-02T11:38:48.396Z,6.10
2023-03-02T11:41:52.206Z,6.85
2023-03-02T11:44:56.131Z,6.95
2023-03-02T11:48:06.069Z,6.00
2023-03-02T11:51:14.490Z,5.85
2023-03-02T11:54:34.673Z,6.20
2023-03-02T11:57:44.099Z,7.10
2023-03-02T12:00:49.826Z,6.68
2023-03-02T12:03:52.914Z,7.32
2023-03-02T12:06:55.693Z,7.72
2023-03-02T12:10:02.837Z,9.63
2023-03-02T12:13:15.343Z,9.70
2023-03-02T12:16:23.933Z,10.55
2023-03-02T12:19:28.848Z,10.60
2023-03-02T12:22:32.840Z,11.80
2023-03-02T12:25:51.584Z,12.73
2023-03-02T12:29:00.859Z,12.18
2023-03-02T12:32:13.556Z,11.98
2023-03-02T12:35:21.008Z,13.80
2023-03-02T12:38:31.996Z,11.38
2023-03-02T12:41:48.252Z,12.77
2023-03-02T12:44:59.572Z,10.18
2023-03-02T12:48:06.811Z,9.90
2023-03-02T12:51:18.248Z,8.85
2023-03-02T12:54:22.845Z,8.98
2023-03-02T12:57:25.326Z,8.88
2023-03-02T13:00:31.228Z,11.65
2023-03-02T13:03:35.147Z,10.70
2023-03-02T13:06:39.867Z,11.43
2023-03-02T13:09:51.054Z,10.10
2023-03-02T13:12:59.627Z,9.25
2023-03-02T13:16:04.325Z,10.02
2023-03-02T13:19:15.214Z,9.57
2023-03-02T13:22:18.382Z,8.77
2023-03-02T13:25:27.002Z,8.88
2023-03-02T13:28:31.611Z,7.35
2023-03-02T13:31:35.432Z,9.35
2023-03-02T13:34:39.413Z,8.93
2023-03-02T13:37:44.736Z,16.67
2023-03-02T13:40:48.626Z,10.00
2023-03-02T13:43:51.519Z,9.85
2023-03-02T13:46:54.105Z,9.82
2023-03-02T13:50:07.927Z,8.52
2023-03-02T13:53:12.370Z,7.80
2023-03-02T13:56:18.959Z,6.93
2023-03-02T13:59:23.222Z,6.88
2023-03-02T14:02:28.003Z,7.47
2023-03-02T14:05:33.804Z,7.28
2023-03-02T14:08:36.453Z,6.15
2023-03-02T14:11:43.144Z,6.32
2023-03-02T14:14:45.783Z,5.53
2023-03-02T14:17:49.161Z,6.95
2023-03-02T14:20:53.134Z,5.78
2023-03-02T14:23:56.035Z,6.85
2023-03-02T14:26:58.966Z,7.57
2023-03-02T14:30:01.990Z,7.05
2023-03-02T14:33:04.528Z,6.45
2023-03-02T14:36:14.127Z,6.95
2023-03-02T14:39:22.721Z,7.35
2023-03-02T14:42:25.261Z,6.68
2023-03-02T14:45:29.831Z,6.38
2023-03-02T14:48:33.328Z,6.00
2023-03-02T14:51:40.280Z,6.13
2023-03-02T15:16:07.221Z,7.63
2023-03-02T15:56:42.286Z,7.75
2023-03-02T15:59:46.297Z,9.02
2023-03-02T16:02:49.423Z,9.40
